Lake Thunderbird, Illinois
Current Conditions -  °F | °C
As of 7:35 PM on Saturday 20 Dec 2014 (Local Time) from KC75 Reporting Station
Overcast Overcast  
Wind Chill: 27°   Ceiling: 4200
Heat Index: 32°   Visibility: 7mi
Dew Point: 28°   Wind: 6mph
Humidity: 85%   Direction: 160°SSE
Pressure: 30.24"   Gusts: NA
Location:  41.1888°N, 89.4469°W
Report Text: KC75 210135Z AUTO 16005KT 7SM OVC042 00/M02 A3024 RMK AO2 T00021021
Loading
Personal Weather Stations






























Interactive Weather Map New forecast layout! Learn more

10-Day Weather Forecast

Advertisements
Track Severe Weather on mobile